createdAt,value
2023-02-13T00:00:23.567Z,13.17
2023-02-13T00:02:50.635Z,13.60
2023-02-13T00:05:18.612Z,13.07
2023-02-13T00:07:45.750Z,14.50
2023-02-13T00:10:12.965Z,14.23
2023-02-13T00:12:39.962Z,13.40
2023-02-13T00:15:08.061Z,13.30
2023-02-13T00:17:35.184Z,15.37
2023-02-13T00:20:02.151Z,12.93
2023-02-13T00:22:29.125Z,12.87
2023-02-13T00:24:56.005Z,13.53
2023-02-13T00:27:22.892Z,12.50
2023-02-13T00:29:49.812Z,11.97
2023-02-13T00:32:16.781Z,13.47
2023-02-13T00:34:44.238Z,15.00
2023-02-13T00:37:11.625Z,15.07
2023-02-13T00:39:38.641Z,14.53
2023-02-13T00:42:06.076Z,13.70
2023-02-13T00:44:33.373Z,13.80
2023-02-13T00:47:00.399Z,13.63
2023-02-13T00:49:27.384Z,13.50
2023-02-13T00:51:54.337Z,13.50
2023-02-13T00:54:21.211Z,15.07
2023-02-13T00:56:48.435Z,14.73
2023-02-13T00:59:15.693Z,14.03
2023-02-13T01:01:42.638Z,15.77
2023-02-13T01:04:09.590Z,15.93
2023-02-13T01:06:36.579Z,14.30
2023-02-13T01:09:04.713Z,14.03
2023-02-13T01:11:32.644Z,14.43
2023-02-13T01:13:59.558Z,14.07
2023-02-13T01:16:26.585Z,13.17
2023-02-13T01:18:53.649Z,14.77
2023-02-13T01:21:23.430Z,16.40
2023-02-13T01:23:51.664Z,15.40
2023-02-13T01:26:24.336Z,15.03
2023-02-13T01:28:55.161Z,14.90
2023-02-13T01:31:22.417Z,15.27
2023-02-13T01:33:49.416Z,15.70
2023-02-13T01:36:17.538Z,16.30
2023-02-13T01:38:44.445Z,15.37
2023-02-13T01:41:11.585Z,14.80
2023-02-13T01:43:52.732Z,13.87
2023-02-13T01:46:31.212Z,14.00
2023-02-13T01:49:16.378Z,13.33
2023-02-13T01:51:43.865Z,12.57
2023-02-13T01:54:17.331Z,12.13
2023-02-13T01:56:51.878Z,12.20
2023-02-13T01:59:23.341Z,12.63
2023-02-13T02:01:51.209Z,11.27
2023-02-13T02:04:25.884Z,12.67
2023-02-13T02:07:07.752Z,14.50
2023-02-13T02:09:39.937Z,13.77
2023-02-13T02:12:30.756Z,15.23
2023-02-13T02:15:00.602Z,14.57
2023-02-13T02:17:28.043Z,13.87
2023-02-13T02:20:08.228Z,14.10
2023-02-13T02:23:03.041Z,14.13
2023-02-13T02:25:54.383Z,12.87
2023-02-13T02:28:59.761Z,13.03
2023-02-13T02:31:48.539Z,13.53
2023-02-13T02:34:36.592Z,12.40
2023-02-13T02:37:29.600Z,12.00
2023-02-13T02:39:56.486Z,13.57
2023-02-13T02:42:42.035Z,14.17
2023-02-13T02:45:46.079Z,12.73
2023-02-13T02:48:55.325Z,14.07
2023-02-13T02:51:28.837Z,15.50
2023-02-13T02:54:33.975Z,15.07
2023-02-13T02:57:08.096Z,15.63
2023-02-13T02:59:55.963Z,16.93
2023-02-13T03:02:42.563Z,15.50
2023-02-13T03:05:40.358Z,16.07
2023-02-13T03:08:07.444Z,16.70
2023-02-13T03:10:56.468Z,17.47
2023-02-13T03:13:44.788Z,19.97
2023-02-13T03:16:38.977Z,17.90
2023-02-13T03:19:31.570Z,21.73
2023-02-13T03:22:28.923Z,18.90
2023-02-13T03:25:30.456Z,19.53
2023-02-13T03:28:35.923Z,19.07
2023-02-13T03:31:14.737Z,20.97
2023-02-13T03:33:54.198Z,17.27
2023-02-13T03:37:11.720Z,14.30
2023-02-13T03:39:44.165Z,12.27
2023-02-13T03:42:37.900Z,12.33
2023-02-13T03:45:36.480Z,12.83
2023-02-13T03:48:31.978Z,13.30
2023-02-13T03:51:02.639Z,13.10
2023-02-13T03:53:33.345Z,13.20
2023-02-13T03:56:20.676Z,12.57
2023-02-13T03:59:10.957Z,12.50
2023-02-13T04:01:39.216Z,14.47
2023-02-13T04:04:17.245Z,11.93
2023-02-13T04:07:06.051Z,12.53
2023-02-13T04:09:37.033Z,12.67
2023-02-13T04:12:14.557Z,12.50
2023-02-13T04:15:00.037Z,11.53
2023-02-13T04:17:52.203Z,11.63
2023-02-13T04:20:19.445Z,12.00
2023-02-13T04:22:47.836Z,12.07
2023-02-13T04:25:17.996Z,12.77
2023-02-13T04:27:45.054Z,11.43
2023-02-13T04:30:13.030Z,11.93
2023-02-13T04:32:39.950Z,12.37
2023-02-13T04:35:07.134Z,13.40
2023-02-13T04:37:34.041Z,12.70
2023-02-13T04:40:00.947Z,12.67
2023-02-13T04:42:27.841Z,12.40
2023-02-13T04:44:54.726Z,11.90
2023-02-13T04:47:21.636Z,13.27
2023-02-13T04:49:48.562Z,13.67
2023-02-13T04:52:15.668Z,12.83
2023-02-13T04:54:42.700Z,11.87
2023-02-13T04:57:09.873Z,12.30
2023-02-13T04:59:36.916Z,13.90
2023-02-13T05:02:03.877Z,12.37
2023-02-13T05:04:30.993Z,14.30
2023-02-13T05:06:57.936Z,12.80
2023-02-13T05:09:25.038Z,12.20
2023-02-13T05:11:53.505Z,14.17
2023-02-13T05:14:20.757Z,14.80
2023-02-13T05:16:49.815Z,13.33
2023-02-13T05:19:17.195Z,13.77
2023-02-13T05:22:02.882Z,13.47
2023-02-13T05:24:29.792Z,13.33
2023-02-13T05:26:56.693Z,14.23
2023-02-13T05:29:23.769Z,12.90
2023-02-13T05:31:56.559Z,13.47
2023-02-13T05:34:25.480Z,13.97
2023-02-13T05:36:52.836Z,13.30
2023-02-13T05:39:20.061Z,14.83
2023-02-13T05:41:48.339Z,14.27
2023-02-13T05:44:16.211Z,13.27
2023-02-13T05:46:45.017Z,14.03
2023-02-13T05:49:13.822Z,14.40
2023-02-13T05:51:41.048Z,13.83
2023-02-13T05:54:08.742Z,13.30
2023-02-13T05:56:35.725Z,16.53
2023-02-13T05:59:02.742Z,18.80
2023-02-13T06:01:29.868Z,14.27
2023-02-13T06:03:59.050Z,14.57
2023-02-13T06:06:26.807Z,15.43
2023-02-13T06:08:53.795Z,15.90
2023-02-13T06:11:20.984Z,15.93
2023-02-13T06:13:47.927Z,16.70
2023-02-13T06:16:15.100Z,17.30
2023-02-13T06:18:42.399Z,17.03
2023-02-13T06:21:09.973Z,16.37
2023-02-13T06:23:37.077Z,17.43
2023-02-13T06:26:08.870Z,16.40
2023-02-13T06:28:36.040Z,17.10
2023-02-13T06:31:03.530Z,15.10
2023-02-13T06:33:30.621Z,16.60
2023-02-13T06:35:57.534Z,15.83
2023-02-13T06:38:24.606Z,16.33
2023-02-13T06:40:51.954Z,17.60
2023-02-13T06:43:19.398Z,18.87
2023-02-13T06:45:47.512Z,19.70
2023-02-13T06:48:15.296Z,17.10
2023-02-13T06:50:42.367Z,20.47
2023-02-13T06:53:09.294Z,22.07
2023-02-13T06:55:39.416Z,20.83
2023-02-13T06:58:06.711Z,19.60
2023-02-13T07:00:34.190Z,18.30
2023-02-13T07:03:05.869Z,17.67
2023-02-13T07:05:33.699Z,16.77
2023-02-13T07:08:00.931Z,18.07
2023-02-13T07:10:28.136Z,17.07
2023-02-13T07:13:05.219Z,17.47
2023-02-13T07:15:36.852Z,19.30
2023-02-13T07:18:04.790Z,19.20
2023-02-13T07:20:32.658Z,17.50
2023-02-13T07:23:00.746Z,18.63
2023-02-13T07:25:28.505Z,17.97
2023-02-13T07:27:55.536Z,19.10
2023-02-13T07:30:22.627Z,17.57
2023-02-13T07:32:49.653Z,19.43
2023-02-13T07:35:16.863Z,18.17
2023-02-13T07:37:44.180Z,17.47
2023-02-13T07:40:11.753Z,17.87
2023-02-13T07:42:38.839Z,19.67
2023-02-13T07:45:07.747Z,18.93
2023-02-13T07:47:35.210Z,21.03
2023-02-13T07:50:06.117Z,18.57
2023-02-13T07:52:33.701Z,19.00
2023-02-13T07:55:01.047Z,18.67
2023-02-13T07:57:28.041Z,18.33
2023-02-13T07:59:55.088Z,18.67
2023-02-13T08:02:21.965Z,19.07
2023-02-13T08:04:49.429Z,16.67
2023-02-13T08:07:17.985Z,22.67
2023-02-13T08:10:04.615Z,17.53
2023-02-13T08:12:32.724Z,18.20
2023-02-13T08:14:59.777Z,19.60
2023-02-13T08:17:26.730Z,17.40
2023-02-13T08:19:53.757Z,17.53
2023-02-13T08:22:20.896Z,16.10
2023-02-13T08:24:47.846Z,17.07
2023-02-13T08:27:15.991Z,18.10
2023-02-13T08:29:42.932Z,16.20
2023-02-13T08:32:10.378Z,17.57
2023-02-13T08:34:37.522Z,15.53
2023-02-13T08:37:05.502Z,17.57
2023-02-13T08:39:32.622Z,16.23
2023-02-13T08:42:00.456Z,18.07
2023-02-13T08:44:27.743Z,17.43
2023-02-13T08:46:54.823Z,15.87
2023-02-13T08:49:21.912Z,16.33
2023-02-13T08:51:49.159Z,14.87
2023-02-13T08:54:16.569Z,15.27
2023-02-13T08:56:43.825Z,15.27
2023-02-13T08:59:10.807Z,15.33
2023-02-13T09:01:37.872Z,15.63
2023-02-13T09:04:05.153Z,15.83
2023-02-13T09:06:32.181Z,15.07
2023-02-13T09:08:59.142Z,16.10
2023-02-13T09:11:26.408Z,15.00
2023-02-13T09:13:54.396Z,16.80
2023-02-13T09:16:22.017Z,15.00
2023-02-13T09:18:50.630Z,15.63
2023-02-13T09:21:18.827Z,16.47
2023-02-13T09:23:45.950Z,16.33
2023-02-13T09:26:15.289Z,16.60
2023-02-13T09:28:43.225Z,16.17
2023-02-13T09:31:15.514Z,15.07
2023-02-13T09:33:46.754Z,17.27
2023-02-13T09:36:16.639Z,16.97
2023-02-13T09:38:44.375Z,16.10
2023-02-13T09:41:20.292Z,16.40
2023-02-13T09:43:54.052Z,17.57
2023-02-13T09:46:34.465Z,17.13
2023-02-13T09:49:08.027Z,16.17
2023-02-13T09:51:35.839Z,15.37
2023-02-13T09:54:08.791Z,16.43
2023-02-13T09:57:00.778Z,15.50
2023-02-13T09:59:49.480Z,18.93
2023-02-13T10:02:42.957Z,16.40
2023-02-13T10:05:19.144Z,15.33
2023-02-13T10:08:02.405Z,16.00
2023-02-13T10:10:50.634Z,15.20
2023-02-13T10:13:45.846Z,16.80
2023-02-13T10:16:21.349Z,14.53
2023-02-13T10:19:16.452Z,16.20
2023-02-13T10:21:56.911Z,15.00
2023-02-13T10:24:34.583Z,13.27
2023-02-13T10:27:09.590Z,15.13
2023-02-13T10:30:06.867Z,16.03
2023-02-13T10:33:18.776Z,15.60
2023-02-13T10:36:09.302Z,17.30
2023-02-13T10:38:44.111Z,16.77
2023-02-13T10:41:43.088Z,18.13
2023-02-13T10:44:28.861Z,17.20
2023-02-13T10:47:19.435Z,16.83
2023-02-13T10:49:55.013Z,16.87
2023-02-13T10:52:41.380Z,17.77
2023-02-13T10:55:20.370Z,16.93
2023-02-13T10:57:59.382Z,16.43
2023-02-13T11:00:43.173Z,15.83
2023-02-13T11:03:22.425Z,16.67
2023-02-13T11:05:51.140Z,14.70
2023-02-13T11:08:23.122Z,14.53
2023-02-13T11:10:51.108Z,14.47
2023-02-13T11:13:20.931Z,15.80
2023-02-13T11:15:59.350Z,14.63
2023-02-13T11:18:29.137Z,15.03
2023-02-13T11:21:10.837Z,15.90
2023-02-13T11:23:43.632Z,15.23
2023-02-13T11:26:35.155Z,15.60
2023-02-13T11:29:06.775Z,15.60
2023-02-13T11:31:37.312Z,14.30
2023-02-13T11:34:26.492Z,14.27
2023-02-13T11:37:07.634Z,13.80
2023-02-13T11:39:34.530Z,16.03
2023-02-13T11:42:01.545Z,16.70
2023-02-13T11:44:32.885Z,15.17
2023-02-13T11:47:03.261Z,15.87
2023-02-13T11:49:44.701Z,15.97
2023-02-13T11:52:28.595Z,30.23
2023-02-13T11:55:02.681Z,15.40
2023-02-13T11:57:34.368Z,16.07
2023-02-13T12:00:22.517Z,15.23
2023-02-13T12:02:50.152Z,16.47
2023-02-13T12:05:20.315Z,14.73
2023-02-13T12:07:47.780Z,16.10
2023-02-13T12:10:47.169Z,15.17
2023-02-13T12:13:21.798Z,15.50
2023-02-13T12:16:03.065Z,15.93
2023-02-13T12:18:34.481Z,14.90
2023-02-13T12:21:16.197Z,15.70
2023-02-13T12:24:20.457Z,15.33
2023-02-13T12:27:16.721Z,15.13
2023-02-13T12:30:18.113Z,14.83
2023-02-13T12:33:08.352Z,16.60
2023-02-13T12:35:44.109Z,16.83
2023-02-13T12:38:23.200Z,16.97
2023-02-13T12:41:08.208Z,16.43
2023-02-13T12:43:59.073Z,17.03
2023-02-13T12:46:34.993Z,15.93
2023-02-13T12:49:36.484Z,17.17
2023-02-13T12:52:29.428Z,16.63
2023-02-13T12:55:35.028Z,17.50
2023-02-13T12:58:23.306Z,16.57
2023-02-13T13:01:15.451Z,17.13
2023-02-13T13:04:27.918Z,16.93
2023-02-13T13:07:02.126Z,15.87
2023-02-13T13:09:49.864Z,15.87
2023-02-13T13:12:19.544Z,16.03
2023-02-13T13:15:03.100Z,17.07
2023-02-13T13:17:34.850Z,16.17
2023-02-13T13:20:23.572Z,15.97
2023-02-13T13:23:03.829Z,16.90
2023-02-13T13:25:42.514Z,15.37
2023-02-13T13:28:18.500Z,15.10
2023-02-13T13:30:46.875Z,16.87
2023-02-13T13:33:18.058Z,16.27
2023-02-13T13:35:54.088Z,16.20
2023-02-13T13:39:01.618Z,16.63
2023-02-13T13:41:51.282Z,17.67
2023-02-13T13:44:49.253Z,24.57
2023-02-13T13:47:25.372Z,17.80
2023-02-13T13:49:54.502Z,25.67
2023-02-13T13:52:34.164Z,15.40
2023-02-13T13:55:04.728Z,17.43
2023-02-13T13:57:40.632Z,16.23
2023-02-13T14:00:07.841Z,21.20
2023-02-13T14:02:42.170Z,16.47
2023-02-13T14:05:33.633Z,16.20
2023-02-13T14:08:04.231Z,15.20
2023-02-13T14:10:32.261Z,16.10
2023-02-13T14:12:59.898Z,16.37
2023-02-13T14:15:42.658Z,17.50
2023-02-13T14:18:12.719Z,16.60
2023-02-13T14:20:51.744Z,16.43
2023-02-13T14:24:00.747Z,16.30
2023-02-13T14:26:36.232Z,15.70
2023-02-13T14:29:12.227Z,19.70
2023-02-13T14:31:50.876Z,18.10
2023-02-13T14:34:29.098Z,15.73
2023-02-13T14:37:11.223Z,20.97
2023-02-13T14:39:42.188Z,23.57
2023-02-13T14:42:29.962Z,16.53
2023-02-13T14:45:00.188Z,16.40
2023-02-13T14:47:30.852Z,18.93
2023-02-13T14:50:01.573Z,15.93
2023-02-13T14:52:37.515Z,21.73
2023-02-13T14:55:14.528Z,16.70
2023-02-13T14:57:47.243Z,16.67
2023-02-13T15:00:33.400Z,19.97
2023-02-13T15:03:20.898Z,19.77
2023-02-13T15:05:52.904Z,17.47
2023-02-13T15:08:23.452Z,14.60
2023-02-13T15:10:53.043Z,18.07
2023-02-13T15:13:26.982Z,17.20
2023-02-13T15:16:01.163Z,15.50
2023-02-13T15:18:31.973Z,15.60
2023-02-13T15:21:01.490Z,18.63
2023-02-13T15:23:33.260Z,15.80
2023-02-13T15:26:06.269Z,16.90
2023-02-13T15:28:34.887Z,16.50
2023-02-13T15:31:08.865Z,19.30
2023-02-13T15:33:48.876Z,15.10
2023-02-13T15:36:21.723Z,15.57
2023-02-13T15:38:48.880Z,18.90
2023-02-13T15:41:24.813Z,16.40
2023-02-13T15:43:58.221Z,15.93
2023-02-13T15:46:38.832Z,18.10
2023-02-13T15:49:09.483Z,16.90
2023-02-13T15:51:36.614Z,16.50
2023-02-13T15:54:25.860Z,15.47
2023-02-13T15:56:55.235Z,16.57
2023-02-13T15:59:22.620Z,16.17
2023-02-13T16:01:51.809Z,16.30
2023-02-13T16:04:20.464Z,17.40
2023-02-13T16:06:49.820Z,16.07
2023-02-13T16:09:34.271Z,17.37
2023-02-13T16:12:28.791Z,17.53
2023-02-13T16:14:57.581Z,17.53
2023-02-13T16:17:34.142Z,17.57
2023-02-13T16:20:02.590Z,18.37
2023-02-13T16:22:35.422Z,17.60
2023-02-13T16:25:12.533Z,16.70
2023-02-13T16:27:58.086Z,16.70
2023-02-13T16:30:37.370Z,16.93
2023-02-13T16:33:16.614Z,18.03
2023-02-13T16:35:49.208Z,18.00
2023-02-13T16:38:38.921Z,18.47
2023-02-13T16:41:25.947Z,19.07
2023-02-13T16:44:21.311Z,16.77
2023-02-13T16:46:56.153Z,19.57
2023-02-13T16:49:25.535Z,18.20
2023-02-13T16:51:57.442Z,18.50
2023-02-13T16:54:56.019Z,18.43
2023-02-13T16:57:44.443Z,17.97
2023-02-13T17:00:24.599Z,16.63
2023-02-13T17:02:52.756Z,18.73
2023-02-13T17:05:25.330Z,18.30
2023-02-13T17:08:00.564Z,19.63
2023-02-13T17:10:36.312Z,18.60
2023-02-13T17:13:09.194Z,19.57
2023-02-13T17:15:36.122Z,19.20
2023-02-13T17:18:03.207Z,18.73
2023-02-13T17:20:33.033Z,19.27
2023-02-13T17:23:02.661Z,19.93
2023-02-13T17:25:35.222Z,21.93
2023-02-13T17:28:07.804Z,20.27
2023-02-13T17:30:35.020Z,20.27
2023-02-13T17:33:07.618Z,21.50
2023-02-13T17:35:35.603Z,21.27
2023-02-13T17:38:02.909Z,20.83
2023-02-13T17:40:31.931Z,19.60
2023-02-13T17:42:59.839Z,21.80
2023-02-13T17:45:29.264Z,20.90
2023-02-13T17:47:57.911Z,26.70
2023-02-13T17:50:26.208Z,20.87
2023-02-13T17:52:53.417Z,20.63
2023-02-13T17:55:24.633Z,20.40
2023-02-13T17:57:53.288Z,22.17
2023-02-13T18:00:21.792Z,22.20
2023-02-13T18:02:49.744Z,20.97
2023-02-13T18:05:18.230Z,22.07
2023-02-13T18:07:46.635Z,19.70
2023-02-13T18:10:23.900Z,23.23
2023-02-13T18:12:51.902Z,23.13
2023-02-13T18:15:19.568Z,21.43
2023-02-13T18:17:46.859Z,23.53
2023-02-13T18:20:17.151Z,22.90
2023-02-13T18:22:44.728Z,23.73
2023-02-13T18:25:13.610Z,23.07
2023-02-13T18:27:40.736Z,24.30
2023-02-13T18:30:08.932Z,24.50
2023-02-13T18:32:36.124Z,26.27
2023-02-13T18:35:03.170Z,26.30
2023-02-13T18:37:30.206Z,25.80
2023-02-13T18:39:57.353Z,25.07
2023-02-13T18:42:24.423Z,26.90
2023-02-13T18:44:51.578Z,25.07
2023-02-13T18:47:19.024Z,25.53
2023-02-13T18:49:46.537Z,25.57
2023-02-13T18:52:13.481Z,27.20
2023-02-13T18:54:40.632Z,27.97
2023-02-13T18:57:07.751Z,26.37
2023-02-13T18:59:34.783Z,24.67
2023-02-13T19:02:04.044Z,26.17
2023-02-13T19:04:31.635Z,25.93
2023-02-13T19:06:58.575Z,24.53
2023-02-13T19:09:25.536Z,24.60
2023-02-13T19:11:52.572Z,26.70
2023-02-13T19:14:19.954Z,27.00
2023-02-13T19:16:46.934Z,26.93
2023-02-13T19:19:14.119Z,25.60
2023-02-13T19:21:41.333Z,26.53
2023-02-13T19:24:11.026Z,27.03
2023-02-13T19:26:38.123Z,26.47
2023-02-13T19:29:05.108Z,26.53
2023-02-13T19:31:33.568Z,25.30
2023-02-13T19:34:00.868Z,26.67
2023-02-13T19:36:30.137Z,24.63
2023-02-13T19:39:00.610Z,27.63
2023-02-13T19:41:29.109Z,26.83
2023-02-13T19:43:56.505Z,26.53
2023-02-13T19:46:26.327Z,27.57
2023-02-13T19:48:53.882Z,25.23
2023-02-13T19:51:24.359Z,24.03
2023-02-13T19:54:03.006Z,29.03
2023-02-13T19:56:31.404Z,26.97
2023-02-13T19:58:58.868Z,25.37
2023-02-13T20:01:27.819Z,25.57
2023-02-13T20:03:55.615Z,28.87
2023-02-13T20:06:30.210Z,27.77
2023-02-13T20:08:59.760Z,28.43
2023-02-13T20:11:26.732Z,30.13
2023-02-13T20:14:00.706Z,28.33
2023-02-13T20:16:33.125Z,28.50
2023-02-13T20:19:03.224Z,30.90
2023-02-13T20:21:30.127Z,28.77
2023-02-13T20:23:57.071Z,30.90
2023-02-13T20:26:24.373Z,29.60
2023-02-13T20:28:51.309Z,30.57
2023-02-13T20:31:21.001Z,30.87
2023-02-13T20:33:50.732Z,32.63
2023-02-13T20:36:24.592Z,31.20
2023-02-13T20:38:54.353Z,31.50
2023-02-13T20:41:24.138Z,32.47
2023-02-13T20:43:51.824Z,30.60
2023-02-13T20:46:19.667Z,30.93
2023-02-13T20:48:48.317Z,30.90
2023-02-13T20:51:17.883Z,29.37
2023-02-13T20:53:45.703Z,30.13
2023-02-13T20:56:18.736Z,32.20
2023-02-13T20:58:47.843Z,30.70
2023-02-13T21:01:18.003Z,32.23
2023-02-13T21:03:48.014Z,32.20
2023-02-13T21:06:15.098Z,30.20
2023-02-13T21:08:43.731Z,30.93
2023-02-13T21:11:10.775Z,30.63
2023-02-13T21:13:39.325Z,29.60
2023-02-13T21:16:10.280Z,30.80
2023-02-13T21:18:38.636Z,31.40
2023-02-13T21:21:06.640Z,30.77
2023-02-13T21:23:34.315Z,29.17
2023-02-13T21:26:05.682Z,28.70
2023-02-13T21:28:33.174Z,30.67
2023-02-13T21:31:09.031Z,29.97
2023-02-13T21:33:35.961Z,29.00
2023-02-13T21:36:05.732Z,29.33
2023-02-13T21:38:33.149Z,31.23
2023-02-13T21:41:09.914Z,31.27
2023-02-13T21:43:39.988Z,30.37
2023-02-13T21:46:11.915Z,30.47
2023-02-13T21:48:40.738Z,28.57
2023-02-13T21:51:15.798Z,31.10
2023-02-13T21:53:45.721Z,30.93
2023-02-13T21:56:15.550Z,31.83
2023-02-13T21:58:43.485Z,29.40
2023-02-13T22:01:25.383Z,30.30
2023-02-13T22:04:00.327Z,30.43
2023-02-13T22:06:29.565Z,31.83
2023-02-13T22:09:01.579Z,33.17
2023-02-13T22:11:29.723Z,30.93
2023-02-13T22:14:01.092Z,31.47
2023-02-13T22:16:28.755Z,32.03
2023-02-13T22:18:55.927Z,31.93
2023-02-13T22:21:25.727Z,31.77
2023-02-13T22:23:53.338Z,31.23
2023-02-13T22:26:26.312Z,31.63
2023-02-13T22:28:54.426Z,29.87
2023-02-13T22:31:25.264Z,31.40
2023-02-13T22:34:08.858Z,29.80
2023-02-13T22:36:41.008Z,28.60
2023-02-13T22:39:09.667Z,32.60
2023-02-13T22:41:36.812Z,30.00
2023-02-13T22:44:04.025Z,29.37
2023-02-13T22:46:33.066Z,30.40
2023-02-13T22:49:00.803Z,28.97
2023-02-13T22:51:33.439Z,31.70
2023-02-13T22:54:00.861Z,29.33
2023-02-13T22:56:29.515Z,32.27
2023-02-13T22:58:57.217Z,30.13
2023-02-13T23:01:26.381Z,31.17
2023-02-13T23:03:54.197Z,29.60
2023-02-13T23:06:22.146Z,31.50
2023-02-13T23:08:52.660Z,30.03
2023-02-13T23:11:40.415Z,29.87
2023-02-13T23:14:07.404Z,30.77
2023-02-13T23:16:54.315Z,31.47
2023-02-13T23:19:21.753Z,32.00
2023-02-13T23:21:49.086Z,30.17
2023-02-13T23:24:16.134Z,32.60
2023-02-13T23:26:43.119Z,32.67
2023-02-13T23:29:10.408Z,30.77
2023-02-13T23:31:37.567Z,29.40
2023-02-13T23:34:04.650Z,29.60
2023-02-13T23:36:31.779Z,29.57
2023-02-13T23:38:58.701Z,29.23
2023-02-13T23:41:25.663Z,30.70
2023-02-13T23:43:52.568Z,30.43
2023-02-13T23:46:19.593Z,29.07
2023-02-13T23:48:46.778Z,30.97
2023-02-13T23:51:13.830Z,30.43
2023-02-13T23:53:40.760Z,28.93
2023-02-13T23:56:07.885Z,29.83
2023-02-13T23:58:34.998Z,28.20
